createdAt,value
2022-12-11T00:00:23.843Z,1.30
2022-12-11T00:03:15.604Z,2.65
2022-12-11T00:05:56.384Z,2.37
2022-12-11T00:08:43.746Z,2.54
2022-12-11T00:11:24.409Z,2.23
2022-12-11T00:13:51.328Z,1.92
2022-12-11T00:16:22.452Z,1.32
2022-12-11T00:18:52.225Z,2.39
2022-12-11T00:21:19.210Z,2.29
2022-12-11T00:23:46.163Z,1.96
2022-12-11T00:26:15.544Z,2.23
2022-12-11T00:29:06.733Z,2.21
2022-12-11T00:31:47.303Z,1.90
2022-12-11T00:34:34.738Z,2.10
2022-12-11T00:37:35.812Z,1.84
2022-12-11T00:40:16.541Z,1.86
2022-12-11T00:43:03.739Z,1.72
2022-12-11T00:45:48.039Z,2.03
2022-12-11T00:48:14.947Z,2.06
2022-12-11T00:50:42.129Z,2.09
2022-12-11T00:53:17.460Z,1.80
2022-12-11T00:55:44.531Z,1.89
2022-12-11T00:58:12.225Z,1.48
2022-12-11T01:00:41.331Z,1.78
2022-12-11T01:03:09.884Z,0.95
2022-12-11T01:05:37.255Z,1.46
2022-12-11T01:08:24.860Z,1.48
2022-12-11T01:11:07.995Z,1.56
2022-12-11T01:13:54.795Z,1.22
2022-12-11T01:16:35.440Z,0.80
2022-12-11T01:19:03.322Z,0.05
2022-12-11T01:21:50.767Z,1.09
2022-12-11T01:24:31.320Z,1.18
2022-12-11T01:26:58.312Z,1.30
2022-12-11T01:29:25.353Z,1.32
2022-12-11T01:31:52.393Z,0.94
2022-12-11T01:34:19.343Z,0.98
2022-12-11T01:36:46.282Z,0.36
2022-12-11T01:39:13.233Z,1.38
2022-12-11T01:42:00.779Z,0.75
2022-12-11T01:45:01.789Z,1.33
2022-12-11T01:47:42.524Z,0.98
2022-12-11T01:50:09.529Z,0.76
2022-12-11T01:53:00.826Z,1.03
2022-12-11T01:55:42.142Z,0.83
2022-12-11T01:58:10.925Z,0.74
2022-12-11T02:00:38.099Z,0.52
2022-12-11T02:03:05.129Z,0.57
2022-12-11T02:05:32.204Z,0.17
2022-12-11T02:08:20.831Z,0.49
2022-12-11T02:11:12.143Z,0.93
2022-12-11T02:13:39.004Z,0.99
2022-12-11T02:16:21.961Z,0.97
2022-12-11T02:19:00.551Z,0.88
2022-12-11T02:21:40.270Z,0.73
2022-12-11T02:24:45.810Z,1.15
2022-12-11T02:27:35.908Z,1.15
2022-12-11T02:30:06.539Z,1.16
2022-12-11T02:32:47.684Z,1.01
2022-12-11T02:35:23.024Z,1.06
2022-12-11T02:38:22.791Z,0.82
2022-12-11T02:41:25.893Z,1.18
2022-12-11T02:44:07.235Z,1.10
2022-12-11T02:46:35.638Z,0.95
2022-12-11T02:49:05.903Z,0.54
2022-12-11T02:51:39.118Z,1.21
2022-12-11T02:54:10.738Z,0.26
2022-12-11T02:57:06.823Z,1.05
2022-12-11T03:00:07.852Z,0.53
2022-12-11T03:02:48.752Z,0.91
2022-12-11T03:05:15.865Z,0.78
2022-12-11T03:08:02.922Z,1.07
2022-12-11T03:10:44.874Z,1.06
2022-12-11T03:13:13.736Z,1.04
2022-12-11T03:15:55.912Z,0.96
2022-12-11T03:18:53.304Z,0.85
2022-12-11T03:21:57.832Z,0.82
2022-12-11T03:24:38.319Z,0.88
2022-12-11T03:27:17.581Z,0.88
2022-12-11T03:29:59.474Z,0.64
2022-12-11T03:32:34.209Z,0.79
2022-12-11T03:35:46.878Z,0.22
2022-12-11T03:38:46.444Z,0.37
2022-12-11T03:41:36.880Z,0.82
2022-12-11T03:44:20.693Z,0.35
2022-12-11T03:46:50.611Z,0.40
2022-12-11T03:49:22.913Z,0.80
2022-12-11T03:51:52.242Z,0.83
2022-12-11T03:54:19.810Z,0.62
2022-12-11T03:56:48.760Z,0.81
2022-12-11T03:59:15.851Z,0.35
2022-12-11T04:01:43.082Z,0.06
2022-12-11T04:04:10.277Z,0.90
2022-12-11T04:06:58.976Z,0.41
2022-12-11T04:09:59.975Z,1.03
2022-12-11T04:12:40.475Z,1.00
2022-12-11T04:15:07.945Z,1.12
2022-12-11T04:17:55.640Z,0.19
2022-12-11T04:20:41.150Z,0.85
2022-12-11T04:23:32.188Z,1.43
2022-12-11T04:26:27.922Z,0.88
2022-12-11T04:29:26.050Z,1.40
2022-12-11T04:31:53.049Z,1.51
2022-12-11T04:34:20.310Z,1.36
2022-12-11T04:36:47.165Z,1.10
2022-12-11T04:39:14.169Z,0.72
2022-12-11T04:42:00.933Z,0.85
2022-12-11T04:44:41.771Z,0.95
2022-12-11T04:47:28.960Z,0.98
2022-12-11T04:50:11.897Z,1.11
2022-12-11T04:52:39.147Z,0.59
2022-12-11T04:55:07.546Z,1.09
2022-12-11T04:57:35.103Z,0.19
2022-12-11T05:00:04.721Z,1.01
2022-12-11T05:02:35.359Z,0.13
2022-12-11T05:05:04.770Z,0.54
2022-12-11T05:07:51.961Z,0.68
2022-12-11T05:10:52.993Z,0.61
2022-12-11T05:13:34.841Z,0.87
2022-12-11T05:16:05.492Z,0.95
2022-12-11T05:18:32.794Z,1.05
2022-12-11T05:21:06.115Z,1.11
2022-12-11T05:23:34.339Z,1.09
2022-12-11T05:26:05.298Z,1.29
2022-12-11T05:28:35.717Z,1.32
2022-12-11T05:31:06.205Z,1.47
2022-12-11T05:33:52.956Z,0.97
2022-12-11T05:36:34.921Z,1.17
2022-12-11T05:39:02.356Z,0.78
2022-12-11T05:41:49.913Z,0.72
2022-12-11T05:44:51.147Z,0.89
2022-12-11T05:47:31.838Z,1.12
2022-12-11T05:49:59.195Z,0.83
2022-12-11T05:52:27.352Z,1.42
2022-12-11T05:54:54.419Z,1.51
2022-12-11T05:57:21.241Z,0.59
2022-12-11T05:59:48.175Z,1.17
2022-12-11T06:02:15.348Z,1.63
2022-12-11T06:04:42.430Z,0.47
2022-12-11T06:07:29.938Z,1.41
2022-12-11T06:10:11.454Z,1.30
2022-12-11T06:12:38.635Z,1.44
2022-12-11T06:15:06.330Z,1.39
2022-12-11T06:17:34.315Z,0.85
2022-12-11T06:20:20.961Z,1.66
2022-12-11T06:23:21.948Z,1.62
2022-12-11T06:26:04.128Z,1.18
2022-12-11T06:28:50.948Z,0.82
2022-12-11T06:31:52.080Z,1.68
2022-12-11T06:34:32.569Z,1.42
2022-12-11T06:36:59.650Z,1.82
2022-12-11T06:39:26.641Z,1.31
2022-12-11T06:42:13.961Z,1.74
2022-12-11T06:44:55.183Z,2.29
2022-12-11T06:47:22.192Z,1.81
2022-12-11T06:49:49.274Z,1.03
2022-12-11T06:52:18.606Z,1.60
2022-12-11T06:54:45.939Z,1.94
2022-12-11T06:57:12.998Z,2.10
2022-12-11T06:59:39.979Z,2.11
2022-12-11T07:02:07.541Z,2.12
2022-12-11T07:04:56.530Z,2.13
2022-12-11T07:07:57.631Z,1.89
2022-12-11T07:10:37.560Z,1.83
2022-12-11T07:13:04.679Z,1.76
2022-12-11T07:15:32.374Z,1.68
2022-12-11T07:18:00.507Z,1.45
2022-12-11T07:20:27.523Z,1.89
2022-12-11T07:22:54.817Z,2.01
2022-12-11T07:25:21.754Z,1.88
2022-12-11T07:27:48.703Z,1.56
2022-12-11T07:30:15.714Z,2.10
2022-12-11T07:32:42.727Z,1.84
2022-12-11T07:35:10.326Z,2.19
2022-12-11T07:37:40.587Z,0.80
2022-12-11T07:40:08.232Z,2.02
2022-12-11T07:42:35.446Z,2.07
2022-12-11T07:45:02.603Z,1.61
2022-12-11T07:47:30.481Z,1.79
2022-12-11T07:50:18.004Z,1.99
2022-12-11T07:53:18.985Z,1.85
2022-12-11T07:56:00.117Z,1.76
2022-12-11T07:58:27.983Z,1.45
2022-12-11T08:00:55.066Z,0.91
2022-12-11T08:03:22.179Z,1.33
2022-12-11T08:05:50.326Z,1.85
2022-12-11T08:08:37.014Z,1.96
2022-12-11T08:11:17.622Z,2.13
2022-12-11T08:13:44.868Z,1.35
2022-12-11T08:16:15.002Z,2.53
2022-12-11T08:18:44.328Z,2.24
2022-12-11T08:21:14.020Z,1.67
2022-12-11T08:23:41.481Z,2.90
2022-12-11T08:26:12.678Z,2.95
2022-12-11T08:29:00.080Z,2.85
2022-12-11T08:31:41.672Z,1.18
2022-12-11T08:34:08.790Z,2.79
2022-12-11T08:36:56.028Z,2.71
2022-12-11T08:39:36.781Z,2.94
2022-12-11T08:42:03.740Z,3.17
2022-12-11T08:44:31.053Z,2.99
2022-12-11T08:46:57.988Z,3.04
2022-12-11T08:49:45.084Z,2.52
2022-12-11T08:52:48.011Z,2.75
2022-12-11T08:55:49.127Z,2.60
2022-12-11T08:58:29.854Z,2.55
2022-12-11T09:00:57.804Z,3.16
2022-12-11T09:03:25.181Z,3.28
2022-12-11T09:05:52.094Z,3.49
2022-12-11T09:08:39.000Z,3.49
2022-12-11T09:11:27.571Z,4.01
2022-12-11T09:13:55.118Z,4.07
2022-12-11T09:16:25.050Z,4.30
2022-12-11T09:18:54.155Z,3.53
2022-12-11T09:21:43.007Z,4.04
2022-12-11T09:24:33.780Z,3.85
2022-12-11T09:27:00.863Z,3.44
2022-12-11T09:29:28.081Z,3.36
2022-12-11T09:31:55.245Z,3.92
2022-12-11T09:34:28.703Z,4.56
2022-12-11T09:36:56.119Z,4.63
2022-12-11T09:39:23.230Z,3.68
2022-12-11T09:41:53.154Z,4.49
2022-12-11T09:44:47.075Z,4.57
2022-12-11T09:47:38.777Z,4.68
2022-12-11T09:50:46.034Z,4.63
2022-12-11T09:53:35.534Z,4.15
2022-12-11T09:56:39.079Z,4.42
2022-12-11T10:00:04.183Z,4.80
2022-12-11T10:03:28.056Z,4.88
2022-12-11T10:06:47.066Z,4.61
2022-12-11T10:10:12.368Z,4.96
2022-12-11T10:13:10.133Z,4.99
2022-12-11T10:15:43.815Z,5.11
2022-12-11T10:18:15.990Z,3.55
2022-12-11T10:20:45.183Z,3.56
2022-12-11T10:23:21.796Z,5.14
2022-12-11T10:25:58.183Z,5.42
2022-12-11T10:28:28.170Z,5.32
2022-12-11T10:31:04.181Z,5.51
2022-12-11T10:33:50.210Z,5.14
2022-12-11T10:36:26.512Z,5.51
2022-12-11T10:38:53.600Z,5.41
2022-12-11T10:41:24.709Z,5.29
2022-12-11T10:43:53.650Z,5.02
2022-12-11T10:46:20.775Z,5.64
2022-12-11T10:49:11.084Z,5.14
2022-12-11T10:51:54.320Z,5.54
2022-12-11T10:54:46.070Z,5.68
2022-12-11T10:57:52.078Z,5.60
2022-12-11T11:00:40.687Z,5.52
2022-12-11T11:03:25.943Z,5.44
2022-12-11T11:06:27.080Z,5.61
2022-12-11T11:09:49.095Z,6.01
2022-12-11T11:12:40.732Z,6.07
2022-12-11T11:15:13.994Z,6.22
2022-12-11T11:17:54.690Z,6.64
2022-12-11T11:20:26.607Z,6.82
2022-12-11T11:22:59.364Z,7.08
2022-12-11T11:25:30.053Z,7.25
2022-12-11T11:28:29.076Z,6.63
2022-12-11T11:31:32.136Z,6.18
2022-12-11T11:34:21.130Z,6.12
2022-12-11T11:37:01.097Z,5.81
2022-12-11T11:39:45.124Z,5.15
2022-12-11T11:42:30.226Z,5.77
2022-12-11T11:45:09.936Z,6.08
2022-12-11T11:47:48.853Z,5.62
2022-12-11T11:50:41.098Z,5.89
2022-12-11T11:53:33.080Z,4.62
2022-12-11T11:56:06.087Z,5.85
2022-12-11T11:58:45.725Z,5.68
2022-12-11T12:01:34.099Z,5.16
2022-12-11T12:04:35.102Z,5.13
2022-12-11T12:08:05.126Z,5.43
2022-12-11T12:11:14.178Z,5.10
2022-12-11T12:13:50.652Z,5.49
2022-12-11T12:16:56.379Z,5.60
2022-12-11T12:19:29.503Z,5.49
2022-12-11T12:22:00.898Z,5.59
2022-12-11T12:24:43.023Z,5.42
2022-12-11T12:27:57.836Z,5.15
2022-12-11T12:30:24.790Z,4.47
2022-12-11T12:33:25.821Z,4.80
2022-12-11T12:36:19.217Z,5.17
2022-12-11T12:39:20.470Z,4.53
2022-12-11T12:42:24.150Z,5.09
2022-12-11T12:45:28.599Z,5.24
2022-12-11T12:48:30.256Z,4.82
2022-12-11T12:51:28.792Z,4.29
2022-12-11T12:54:09.091Z,4.82
2022-12-11T12:56:40.752Z,5.26
2022-12-11T12:59:20.777Z,4.71
2022-12-11T13:02:16.176Z,5.19
2022-12-11T13:05:25.341Z,5.10
2022-12-11T13:08:18.158Z,5.62
2022-12-11T13:11:11.555Z,4.74
2022-12-11T13:13:41.257Z,5.66
2022-12-11T13:16:35.429Z,5.40
2022-12-11T13:19:42.381Z,5.20
2022-12-11T13:22:27.575Z,4.81
2022-12-11T13:25:01.841Z,5.38
2022-12-11T13:27:31.999Z,6.09
2022-12-11T13:30:29.151Z,6.05
2022-12-11T13:33:19.172Z,6.07
2022-12-11T13:35:46.322Z,5.97
2022-12-11T13:38:21.089Z,5.38
2022-12-11T13:40:54.602Z,5.41
2022-12-11T13:43:31.161Z,5.45
2022-12-11T13:46:01.947Z,5.56
2022-12-11T13:48:54.242Z,5.76
2022-12-11T13:52:12.128Z,5.89
2022-12-11T13:54:55.665Z,5.97
2022-12-11T13:57:26.315Z,6.08
2022-12-11T13:59:55.678Z,5.90
2022-12-11T14:02:35.506Z,5.83
2022-12-11T14:05:07.422Z,4.75
2022-12-11T14:08:04.244Z,5.61
2022-12-11T14:11:07.212Z,5.26
2022-12-11T14:13:48.210Z,5.35
2022-12-11T14:16:22.909Z,5.07
2022-12-11T14:18:54.819Z,5.02
2022-12-11T14:21:26.253Z,4.56
2022-12-11T14:23:56.262Z,5.27
2022-12-11T14:26:28.917Z,4.62
2022-12-11T14:28:56.240Z,5.32
2022-12-11T14:31:49.693Z,4.38
2022-12-11T14:34:22.579Z,5.57
2022-12-11T14:36:55.588Z,4.25
2022-12-11T14:39:34.741Z,5.24
2022-12-11T14:42:10.027Z,5.36
2022-12-11T14:44:53.028Z,3.64
2022-12-11T14:47:27.556Z,4.68
2022-12-11T14:50:22.207Z,5.09
2022-12-11T14:53:33.201Z,4.91
2022-12-11T14:56:41.221Z,4.97
2022-12-11T14:59:28.541Z,4.79
2022-12-11T15:02:37.224Z,4.76
2022-12-11T15:05:40.981Z,3.37
2022-12-11T15:08:48.220Z,3.93
2022-12-11T15:11:49.504Z,4.96
2022-12-11T15:14:33.635Z,4.41
2022-12-11T15:17:28.247Z,5.04
2022-12-11T15:20:20.568Z,4.95
2022-12-11T15:23:08.246Z,4.07
2022-12-11T15:25:58.224Z,4.69
2022-12-11T15:28:37.556Z,4.38
2022-12-11T15:31:08.045Z,3.95
2022-12-11T15:33:46.156Z,4.26
2022-12-11T15:36:26.754Z,4.11
2022-12-11T15:38:53.861Z,4.00
2022-12-11T15:41:21.633Z,3.79
2022-12-11T15:43:51.733Z,3.05
2022-12-11T15:46:21.068Z,3.38
2022-12-11T15:49:03.211Z,3.43
2022-12-11T15:52:04.205Z,3.57
2022-12-11T15:55:05.225Z,3.90
2022-12-11T15:57:55.449Z,3.64
2022-12-11T16:00:24.186Z,3.70
2022-12-11T16:02:52.212Z,3.04
2022-12-11T16:05:20.341Z,3.57
2022-12-11T16:08:07.277Z,3.14
2022-12-11T16:10:49.394Z,3.33
2022-12-11T16:13:16.619Z,3.58
2022-12-11T16:15:46.155Z,3.55
2022-12-11T16:18:16.378Z,3.43
2022-12-11T16:20:45.106Z,3.23
2022-12-11T16:23:14.783Z,3.28
2022-12-11T16:25:42.688Z,2.52
2022-12-11T16:28:12.242Z,3.28
2022-12-11T16:30:52.336Z,2.98
2022-12-11T16:33:33.009Z,2.66
2022-12-11T16:35:59.934Z,3.11
2022-12-11T16:38:27.146Z,3.06
2022-12-11T16:41:01.991Z,2.99
2022-12-11T16:43:29.048Z,3.15
2022-12-11T16:45:56.143Z,2.97
2022-12-11T16:48:43.600Z,3.02
2022-12-11T16:51:24.364Z,2.92
2022-12-11T16:53:51.800Z,2.95
2022-12-11T16:56:18.972Z,3.09
2022-12-11T16:58:47.729Z,2.85
2022-12-11T17:01:35.291Z,1.49
2022-12-11T17:04:36.263Z,3.07
2022-12-11T17:07:37.279Z,2.76
2022-12-11T17:10:17.989Z,2.63
2022-12-11T17:12:44.894Z,2.41
2022-12-11T17:15:12.191Z,2.35
2022-12-11T17:17:39.353Z,1.93
2022-12-11T17:20:06.908Z,2.41
2022-12-11T17:22:35.033Z,1.55
2022-12-11T17:25:02.114Z,2.17
2022-12-11T17:27:29.060Z,2.46
2022-12-11T17:29:56.124Z,2.00
2022-12-11T17:32:23.018Z,1.66
2022-12-11T17:34:50.551Z,2.12
2022-12-11T17:37:18.721Z,1.20
2022-12-11T17:39:47.297Z,0.79
2022-12-11T17:42:14.332Z,2.21
2022-12-11T17:44:41.312Z,1.79
2022-12-11T17:47:11.179Z,0.91
2022-12-11T17:49:58.288Z,0.93
2022-12-11T17:52:59.261Z,1.58
2022-12-11T17:56:01.372Z,1.82
2022-12-11T17:58:41.995Z,1.44
2022-12-11T18:01:10.246Z,0.75
2022-12-11T18:03:38.174Z,1.54
2022-12-11T18:06:27.340Z,1.73
2022-12-11T18:09:28.295Z,1.22
2022-12-11T18:12:29.287Z,1.44
2022-12-11T18:15:30.285Z,1.34
2022-12-11T18:18:11.291Z,1.74
2022-12-11T18:20:49.028Z,1.67
2022-12-11T18:23:16.079Z,0.81
2022-12-11T18:25:42.998Z,1.51
2022-12-11T18:28:09.948Z,1.73
2022-12-11T18:30:37.121Z,1.46
2022-12-11T18:33:04.101Z,1.58
2022-12-11T18:35:31.954Z,1.64
2022-12-11T18:37:58.890Z,1.19
2022-12-11T18:40:25.833Z,1.17
2022-12-11T18:42:52.774Z,0.19
2022-12-11T18:45:20.661Z,1.43
2022-12-11T18:47:47.697Z,0.93
2022-12-11T18:50:35.565Z,1.14
2022-12-11T18:53:25.888Z,1.07
2022-12-11T18:55:58.604Z,1.47
2022-12-11T18:58:27.522Z,1.46
2022-12-11T19:00:54.531Z,1.57
2022-12-11T19:03:41.310Z,1.48
2022-12-11T19:06:43.321Z,1.33
2022-12-11T19:09:48.109Z,1.12
2022-12-11T19:12:36.313Z,0.49
2022-12-11T19:15:03.715Z,0.87
2022-12-11T19:17:30.749Z,1.07
2022-12-11T19:19:57.875Z,1.16
2022-12-11T19:22:45.466Z,1.09
2022-12-11T19:25:43.919Z,1.12
2022-12-11T19:28:11.179Z,0.82
2022-12-11T19:30:46.813Z,0.39
2022-12-11T19:33:14.221Z,0.66
2022-12-11T19:35:41.441Z,1.16
2022-12-11T19:38:08.743Z,1.20
2022-12-11T19:40:56.310Z,1.19
2022-12-11T19:43:36.935Z,1.29
2022-12-11T19:46:06.616Z,1.55
2022-12-11T19:48:37.382Z,1.48
2022-12-11T19:51:09.992Z,1.64
2022-12-11T19:53:37.827Z,1.59
2022-12-11T19:56:05.957Z,1.09
2022-12-11T19:58:33.482Z,1.18
2022-12-11T20:01:01.474Z,1.08
2022-12-11T20:03:50.421Z,0.11
2022-12-11T20:06:53.397Z,1.22
2022-12-11T20:09:34.323Z,0.40
2022-12-11T20:12:03.177Z,1.48
2022-12-11T20:14:30.180Z,1.24
2022-12-11T20:17:14.866Z,0.93
2022-12-11T20:19:42.762Z,0.98
2022-12-11T20:22:10.108Z,0.94
2022-12-11T20:24:57.403Z,0.78
2022-12-11T20:27:58.443Z,0.80
2022-12-11T20:30:50.952Z,1.01
2022-12-11T20:33:18.464Z,1.43
2022-12-11T20:35:46.165Z,1.10
2022-12-11T20:38:13.283Z,1.51
2022-12-11T20:40:40.312Z,1.08
2022-12-11T20:43:07.295Z,1.26
2022-12-11T20:45:34.542Z,1.49
2022-12-11T20:48:01.585Z,-0.25
2022-12-11T20:50:28.959Z,0.93
2022-12-11T20:52:55.848Z,0.42
2022-12-11T20:55:43.404Z,0.90
2022-12-11T20:58:24.371Z,0.56
2022-12-11T21:00:51.832Z,0.35
2022-12-11T21:03:18.994Z,0.80
2022-12-11T21:05:46.937Z,0.82
2022-12-11T21:08:34.447Z,0.33
2022-12-11T21:11:35.502Z,0.53
2022-12-11T21:14:17.171Z,1.07
2022-12-11T21:16:45.076Z,0.88
2022-12-11T21:19:16.652Z,1.24
2022-12-11T21:21:45.773Z,1.10
2022-12-11T21:24:20.729Z,0.96
2022-12-11T21:26:48.773Z,1.50
2022-12-11T21:29:16.450Z,1.41
2022-12-11T21:31:43.957Z,1.05
2022-12-11T21:34:11.069Z,1.49
2022-12-11T21:36:38.169Z,1.61
2022-12-11T21:39:05.299Z,1.42
2022-12-11T21:41:32.880Z,1.45
2022-12-11T21:46:47.175Z,1.25
2022-12-11T21:49:14.153Z,1.66
2022-12-11T21:52:01.412Z,1.31
2022-12-11T21:55:03.446Z,1.55
2022-12-11T21:57:43.961Z,1.97
2022-12-11T22:00:11.457Z,1.77
2022-12-11T22:03:02.414Z,1.90
2022-12-11T22:05:43.012Z,2.01
2022-12-11T22:08:30.493Z,2.11
2022-12-11T22:11:11.165Z,2.11
2022-12-11T22:13:38.214Z,2.00
2022-12-11T22:16:05.534Z,1.52
2022-12-11T22:18:32.474Z,1.68
2022-12-11T22:20:59.654Z,2.51
2022-12-11T22:23:27.205Z,2.31
2022-12-11T22:25:54.508Z,2.40
2022-12-11T22:28:21.642Z,1.90
2022-12-11T22:31:08.468Z,2.04
2022-12-11T22:33:50.864Z,2.54
2022-12-11T22:36:19.070Z,2.43
2022-12-11T22:38:47.606Z,2.38
2022-12-11T22:41:22.457Z,2.17
2022-12-11T22:43:51.262Z,1.28
2022-12-11T22:46:20.699Z,1.35
2022-12-11T22:48:47.742Z,1.98
2022-12-11T22:51:15.003Z,2.02
2022-12-11T22:54:02.440Z,2.25
2022-12-11T22:57:03.462Z,2.32
2022-12-11T23:00:04.440Z,2.19
2022-12-11T23:03:04.465Z,2.24
2022-12-11T23:05:31.464Z,2.54
2022-12-11T23:08:18.558Z,2.51
2022-12-11T23:10:59.146Z,2.47
2022-12-11T23:13:26.080Z,1.87
2022-12-11T23:15:53.018Z,1.95
2022-12-11T23:18:19.897Z,1.21
2022-12-11T23:20:46.944Z,2.08
2022-12-11T23:23:14.232Z,2.45
2022-12-11T23:25:41.112Z,1.54
2022-12-11T23:28:08.073Z,2.31
2022-12-11T23:30:35.204Z,2.07
2022-12-11T23:33:22.458Z,2.10
2022-12-11T23:36:04.156Z,2.18
2022-12-11T23:38:32.285Z,2.43
2022-12-11T23:41:03.680Z,2.40
2022-12-11T23:43:31.484Z,2.03
2022-12-11T23:45:58.510Z,2.18
2022-12-11T23:48:25.722Z,1.56
2022-12-11T23:50:52.735Z,1.20
2022-12-11T23:53:19.727Z,2.35
2022-12-11T23:56:08.479Z,2.34
2022-12-11T23:59:02.546Z,2.38
